Time;durP1;ratioP1;P1;durP2;ratioP2;P2;SDS_P1;SDS_P2;PMS_P1;PMS_P2;Temp;Humidity;BMP_temperature;BMP_pressure;BME280_temperature;BME280_humidity;BME280_pressure;Samples;Min_cycle;Max_cycle;Signal;HPM_P1;HPM_P2
2022/02/25 00:02:18;;;;;;;4.50;1.50;;;4.20;99.90;;;;;;4972414;28;20832;-84
2022/02/25 00:04:44;;;;;;;4.10;1.70;;;4.20;99.90;;;;;;4989856;28;20373;-83
2022/02/25 00:07:09;;;;;;;3.17;1.85;;;4.20;99.90;;;;;;4989844;28;20491;-83
2022/02/25 00:09:35;;;;;;;3.47;1.67;;;4.20;99.90;;;;;;4989868;28;20385;-85
2022/02/25 00:12:00;;;;;;;3.30;1.40;;;4.30;99.90;;;;;;4990122;28;20867;-84
2022/02/25 00:14:26;;;;;;;2.70;1.60;;;4.40;99.90;;;;;;4973676;28;20863;-83
2022/02/25 00:16:52;;;;;;;3.35;1.75;;;4.50;99.90;;;;;;4989589;28;20435;-84
2022/02/25 00:19:18;;;;;;;3.20;1.90;;;4.50;99.90;;;;;;4989698;28;20377;-85
2022/02/25 00:21:44;;;;;;;3.50;1.58;;;4.60;99.90;;;;;;4971941;28;20416;-84
2022/02/25 00:24:09;;;;;;;5.50;1.90;;;4.60;99.90;;;;;;4989925;28;20412;-83
2022/02/25 00:26:35;;;;;;;3.13;1.52;;;4.60;99.90;;;;;;4989743;28;20380;-84
2022/02/25 00:29:03;;;;;;;3.75;2.00;;;4.70;99.90;;;;;;4989773;28;20381;-82
2022/02/25 00:31:28;;;;;;;6.43;2.30;;;4.60;99.90;;;;;;4989496;28;20476;-84
2022/02/25 00:33:54;;;;;;;4.37;1.63;;;4.60;99.90;;;;;;4971981;28;20858;-83
2022/02/25 00:36:20;;;;;;;4.17;1.77;;;4.60;99.90;;;;;;4988953;28;20389;-86
2022/02/25 00:38:45;;;;;;;4.43;1.92;;;4.50;99.90;;;;;;4972173;28;21270;-81
2022/02/25 00:41:11;;;;;;;6.40;2.10;;;4.60;99.90;;;;;;4989111;28;20374;-83
2022/02/25 00:43:37;;;;;;;5.93;2.30;;;4.50;99.90;;;;;;4988909;28;20408;-85
2022/02/25 00:46:02;;;;;;;3.70;1.70;;;4.50;99.90;;;;;;4989599;28;20456;-82
2022/02/25 00:48:28;;;;;;;5.13;2.20;;;4.40;99.90;;;;;;4991337;28;20465;-83
2022/02/25 00:50:54;;;;;;;3.07;1.60;;;4.40;99.90;;;;;;4975455;28;21003;-85
2022/02/25 00:53:19;;;;;;;5.32;2.60;;;4.30;99.90;;;;;;4993096;28;20427;-83
2022/02/25 00:55:45;;;;;;;3.67;1.80;;;4.30;99.90;;;;;;4975663;28;20818;-84
2022/02/25 00:58:10;;;;;;;3.83;1.73;;;4.20;99.90;;;;;;4975585;28;20392;-84
2022/02/25 01:00:36;;;;;;;4.05;1.80;;;4.10;99.90;;;;;;4976011;28;20837;-83
2022/02/25 01:03:02;;;;;;;4.25;1.80;;;4.00;99.90;;;;;;4975408;28;20408;-83
2022/02/25 01:05:27;;;;;;;4.28;2.17;;;4.00;99.90;;;;;;4993275;28;20373;-82
2022/02/25 01:07:54;;;;;;;3.73;1.80;;;4.00;99.90;;;;;;4975260;28;20408;-84
2022/02/25 01:10:20;;;;;;;6.45;1.98;;;4.00;99.90;;;;;;4993257;28;20878;-84
2022/02/25 01:12:47;;;;;;;5.27;1.70;;;4.10;99.90;;;;;;4975440;28;20387;-82
2022/02/25 01:15:14;;;;;;;3.83;2.00;;;4.10;99.90;;;;;;4993130;28;20874;-84
2022/02/25 01:17:40;;;;;;;3.95;1.75;;;4.20;99.90;;;;;;4994968;28;20385;-84
2022/02/25 01:20:07;;;;;;;3.47;1.80;;;4.20;99.90;;;;;;4992916;28;20384;-85
2022/02/25 01:22:34;;;;;;;3.87;1.90;;;4.30;99.90;;;;;;4974783;28;20393;-83
2022/02/25 01:25:00;;;;;;;4.90;2.10;;;4.40;99.90;;;;;;4976094;28;20913;-82
2022/02/25 01:27:26;;;;;;;4.40;1.90;;;4.40;99.90;;;;;;4978097;28;20381;-84
2022/02/25 01:29:51;;;;;;;4.07;1.80;;;4.40;99.90;;;;;;4993613;28;20385;-82
2022/02/25 01:32:17;;;;;;;2.85;1.90;;;4.40;99.90;;;;;;4992479;28;20384;-84
2022/02/25 01:34:43;;;;;;;5.00;2.10;;;4.50;99.90;;;;;;4994877;28;20459;-85
2022/02/25 01:37:09;;;;;;;3.80;2.27;;;4.50;99.90;;;;;;4975258;28;20401;-83
2022/02/25 01:39:35;;;;;;;2.80;1.95;;;4.50;99.90;;;;;;4975484;28;20452;-85
2022/02/25 01:42:02;;;;;;;4.60;2.15;;;4.60;99.90;;;;;;4974765;28;20388;-84
2022/02/25 01:44:31;;;;;;;4.30;1.83;;;4.50;99.90;;;;;;4998721;28;20430;-85
2022/02/25 01:47:04;;;;;;;4.75;2.30;;;4.40;99.90;;;;;;4994170;28;20385;-83
2022/02/25 01:49:30;;;;;;;5.75;2.22;;;4.40;99.90;;;;;;4992493;28;20464;-84
2022/02/25 01:52:04;;;;;;;6.10;2.47;;;4.30;99.90;;;;;;4991258;28;20487;-82
2022/02/25 01:54:31;;;;;;;5.93;2.50;;;4.10;99.90;;;;;;4974977;28;20795;-84
2022/02/25 01:56:59;;;;;;;4.43;2.58;;;4.10;99.90;;;;;;4992230;28;20395;-83
2022/02/25 01:59:26;;;;;;;6.10;2.50;;;4.00;99.90;;;;;;4992197;28;20444;-83
2022/02/25 02:01:51;;;;;;;7.80;2.77;;;3.80;99.90;;;;;;4974690;28;20464;-84
2022/02/25 02:04:18;;;;;;;8.30;2.70;;;3.70;99.90;;;;;;4974769;28;20442;-84
2022/02/25 02:06:43;;;;;;;6.13;2.70;;;3.70;99.90;;;;;;4991972;28;20985;-82
2022/02/25 02:09:09;;;;;;;5.38;2.50;;;3.70;99.90;;;;;;4974470;28;20417;-83
2022/02/25 02:11:36;;;;;;;6.65;2.90;;;3.50;99.90;;;;;;4991556;28;20379;-81
2022/02/25 02:14:05;;;;;;;8.55;2.83;;;3.50;99.90;;;;;;4992161;28;20381;-84
2022/02/25 02:16:31;;;;;;;5.63;2.55;;;3.60;99.90;;;;;;4974628;28;20405;-82
2022/02/25 02:18:57;;;;;;;8.32;3.10;;;3.40;99.90;;;;;;4974426;28;20377;-82
2022/02/25 02:21:28;;;;;;;7.07;2.97;;;3.40;99.90;;;;;;4991903;28;20427;-81
2022/02/25 02:23:56;;;;;;;6.82;2.88;;;3.50;99.90;;;;;;4991122;28;20413;-84
2022/02/25 02:26:22;;;;;;;7.15;2.95;;;3.40;99.90;;;;;;4974202;28;20508;-85
2022/02/25 02:28:48;;;;;;;6.90;3.20;;;3.40;99.90;;;;;;4991823;28;20381;-85
2022/02/25 02:31:15;;;;;;;7.28;3.50;;;3.40;99.90;;;;;;4991672;28;20436;-81
2022/02/25 02:33:41;;;;;;;7.75;3.08;;;3.30;99.90;;;;;;4991594;28;20467;-86
2022/02/25 02:36:08;;;;;;;8.98;3.20;;;3.30;99.90;;;;;;4991713;28;20377;-83
2022/02/25 02:38:34;;;;;;;6.43;3.05;;;3.30;99.90;;;;;;4973637;28;20504;-82
2022/02/25 02:41:00;;;;;;;7.90;3.53;;;3.40;99.90;;;;;;4974142;28;20409;-83
2022/02/25 02:43:26;;;;;;;8.57;4.28;;;3.20;99.90;;;;;;4991394;28;20459;-84
2022/02/25 02:45:54;;;;;;;8.52;3.78;;;3.10;99.90;;;;;;4991690;28;20405;-83
2022/02/25 02:48:19;;;;;;;6.28;3.13;;;3.00;99.90;;;;;;4973947;28;20381;-82
2022/02/25 02:50:45;;;;;;;7.95;3.30;;;3.10;99.90;;;;;;4991293;28;20443;-83
2022/02/25 02:53:11;;;;;;;7.28;3.63;;;3.10;99.90;;;;;;4990798;28;20401;-82
2022/02/25 02:55:37;;;;;;;7.35;3.67;;;3.10;99.90;;;;;;4991470;28;20373;-83
2022/02/25 02:58:03;;;;;;;7.97;3.58;;;3.10;99.90;;;;;;4973768;28;20409;-82
2022/02/25 03:00:29;;;;;;;9.40;3.70;;;3.20;99.90;;;;;;4991510;28;20727;-83
2022/02/25 03:02:55;;;;;;;10.77;3.63;;;3.30;99.90;;;;;;4973229;28;20420;-84
2022/02/25 03:05:23;;;;;;;7.25;3.78;;;3.30;99.90;;;;;;4973464;28;20385;-84
2022/02/25 03:07:48;;;;;;;10.13;4.00;;;3.30;99.90;;;;;;4990453;28;20875;-84
2022/02/25 03:10:15;;;;;;;9.23;3.73;;;3.10;99.90;;;;;;4990565;28;20396;-85
2022/02/25 03:12:41;;;;;;;10.23;4.07;;;3.10;99.90;;;;;;4972958;28;20467;-84
2022/02/25 03:15:07;;;;;;;9.77;4.32;;;3.70;99.90;;;;;;4990566;28;21010;-85
2022/02/25 03:17:33;;;;;;;8.50;3.90;;;3.20;99.90;;;;;;4991159;28;20454;-85
2022/02/25 03:20:00;;;;;;;10.30;4.18;;;3.00;99.90;;;;;;4990869;28;20377;-84
2022/02/25 03:22:26;;;;;;;8.43;3.55;;;2.90;99.90;;;;;;4989644;28;20388;-85
2022/02/25 03:24:56;;;;;;;9.25;3.97;;;3.00;99.90;;;;;;4990944;28;20373;-82
2022/02/25 03:27:22;;;;;;;11.95;3.95;;;3.20;99.90;;;;;;4991424;28;20847;-83
2022/02/25 03:29:48;;;;;;;6.60;3.60;;;2.90;99.90;;;;;;4974011;28;20763;-84
2022/02/25 03:32:14;;;;;;;7.70;3.97;;;2.90;99.90;;;;;;4973263;28;20871;-83
2022/02/25 03:34:40;;;;;;;11.05;3.65;;;2.80;99.90;;;;;;4973500;28;20405;-87
2022/02/25 03:37:06;;;;;;;9.55;4.13;;;2.80;99.90;;;;;;4973348;28;20412;-83
2022/02/25 03:39:32;;;;;;;10.90;4.47;;;2.90;99.90;;;;;;4972764;28;20451;-82
2022/02/25 03:41:58;;;;;;;10.87;4.40;;;2.90;99.90;;;;;;4989840;28;20976;-84
2022/02/25 03:44:23;;;;;;;8.52;3.97;;;2.80;99.90;;;;;;4991253;28;20423;-84
2022/02/25 03:46:49;;;;;;;10.90;4.18;;;2.70;99.90;;;;;;4990281;28;20474;-82
2022/02/25 03:49:15;;;;;;;10.47;4.30;;;2.60;99.90;;;;;;4991004;28;20863;-83
2022/02/25 03:51:41;;;;;;;8.80;4.75;;;2.60;99.90;;;;;;4991000;28;20851;-84
2022/02/25 03:54:07;;;;;;;9.10;4.37;;;2.60;99.90;;;;;;4989714;28;20503;-86
2022/02/25 03:56:32;;;;;;;10.03;4.73;;;2.50;99.90;;;;;;4972478;28;20476;-85
2022/02/25 03:58:58;;;;;;;9.77;4.60;;;2.50;99.90;;;;;;4972685;28;20464;-84
2022/02/25 04:01:24;;;;;;;9.45;5.00;;;2.60;99.90;;;;;;4972432;28;20913;-85
2022/02/25 04:03:50;;;;;;;10.35;4.43;;;2.60;99.90;;;;;;4972706;28;20767;-85
2022/02/25 04:06:16;;;;;;;12.05;4.70;;;2.60;99.90;;;;;;4989970;28;20791;-86
2022/02/25 04:08:43;;;;;;;9.52;4.18;;;2.60;99.90;;;;;;4972184;28;20499;-83
2022/02/25 04:11:09;;;;;;;10.82;4.55;;;2.60;99.90;;;;;;4989990;28;20392;-83
2022/02/25 04:13:37;;;;;;;9.50;4.18;;;2.80;99.90;;;;;;4990021;28;20863;-84
2022/02/25 04:16:03;;;;;;;12.43;4.78;;;2.70;99.90;;;;;;4990037;28;20384;-85
2022/02/25 04:18:29;;;;;;;8.57;4.60;;;2.70;99.90;;;;;;4972389;28;20388;-85
2022/02/25 04:20:54;;;;;;;8.93;4.28;;;2.70;99.90;;;;;;4989771;28;20739;-85
2022/02/25 04:23:20;;;;;;;10.23;4.22;;;2.70;99.90;;;;;;4988347;28;20915;-86
2022/02/25 04:25:47;;;;;;;8.70;4.22;;;2.60;99.90;;;;;;4990458;28;20403;-85
2022/02/25 04:28:13;;;;;;;9.85;4.45;;;3.00;99.90;;;;;;4990251;28;20373;-84
2022/02/25 04:30:39;;;;;;;10.23;4.10;;;2.90;99.90;;;;;;4990211;28;20412;-85
2022/02/25 04:33:04;;;;;;;11.80;4.20;;;2.70;99.90;;;;;;4989826;28;20878;-82
2022/02/25 04:35:30;;;;;;;11.13;4.00;;;2.90;99.90;;;;;;4989424;28;20464;-83
2022/02/25 04:37:56;;;;;;;10.50;4.90;;;2.60;99.90;;;;;;4989847;28;20412;-84
2022/02/25 04:40:22;;;;;;;10.43;4.32;;;3.20;99.90;;;;;;4989751;28;20492;-82
2022/02/25 04:42:48;;;;;;;9.35;4.28;;;2.70;99.90;;;;;;4972159;28;20771;-85
2022/02/25 04:45:14;;;;;;;11.85;4.28;;;2.80;99.90;;;;;;4972860;28;20393;-86
2022/02/25 04:47:40;;;;;;;11.60;4.97;;;2.60;99.90;;;;;;4972808;28;20392;-83
2022/02/25 04:50:07;;;;;;;10.97;4.97;;;2.60;99.90;;;;;;4995127;28;20381;-83
2022/02/25 04:52:33;;;;;;;10.17;4.40;;;2.80;99.90;;;;;;4982832;28;20404;-82
2022/02/25 04:54:59;;;;;;;10.73;4.60;;;2.90;99.90;;;;;;4976406;28;20411;-85
2022/02/25 04:57:25;;;;;;;10.05;4.93;;;2.80;99.90;;;;;;4974187;28;20388;-84
2022/02/25 04:59:50;;;;;;;13.95;4.95;;;2.60;99.90;;;;;;4992780;28;20392;-85
2022/02/25 05:02:16;;;;;;;9.32;4.88;;;3.80;99.90;;;;;;4973086;28;20452;-81
2022/02/25 05:04:42;;;;;;;8.00;4.18;;;2.70;99.90;;;;;;4991336;28;20408;-86
2022/02/25 05:07:08;;;;;;;11.15;4.70;;;3.20;99.90;;;;;;4973113;28;20459;-82
2022/02/25 05:09:33;;;;;;;10.15;4.50;;;2.50;99.90;;;;;;4989187;28;20401;-85
2022/02/25 05:11:59;;;;;;;9.67;4.30;;;2.70;99.90;;;;;;4989520;28;20428;-83
2022/02/25 05:22:37;;;;;;;8.82;4.00;;;2.80;99.90;;;;;;4992669;28;20799;-85
2022/02/25 05:25:03;;;;;;;10.13;4.07;;;3.10;99.90;;;;;;4994133;28;20441;-84
2022/02/25 05:27:29;;;;;;;10.00;4.15;;;2.70;99.90;;;;;;4994125;28;20373;-82
2022/02/25 05:29:55;;;;;;;8.32;3.67;;;3.10;99.90;;;;;;4993376;28;20435;-83
2022/02/25 05:32:20;;;;;;;13.65;4.45;;;2.60;99.90;;;;;;4974990;28;20392;-84
2022/02/25 05:34:46;;;;;;;12.77;5.43;;;2.70;99.90;;;;;;4978762;28;20468;-84
2022/02/25 05:37:11;;;;;;;11.87;5.10;;;3.30;99.90;;;;;;4980536;28;20384;-83
2022/02/25 05:39:37;;;;;;;8.38;4.40;;;2.70;99.90;;;;;;4994309;28;20427;-86
2022/02/25 05:42:03;;;;;;;10.07;4.45;;;2.40;99.90;;;;;;4981364;28;20396;-83
2022/02/25 05:44:29;;;;;;;8.98;4.45;;;2.50;99.90;;;;;;4998137;28;20408;-88
2022/02/25 05:46:55;;;;;;;11.20;4.47;;;2.40;99.90;;;;;;4999365;28;20843;-84
2022/02/25 05:49:20;;;;;;;8.63;3.92;;;2.30;99.90;;;;;;4980799;28;20419;-84
2022/02/25 05:51:46;;;;;;;9.13;3.83;;;2.20;99.90;;;;;;4980625;28;20795;-83
2022/02/25 05:54:12;;;;;;;11.10;4.30;;;2.40;99.90;;;;;;4981530;28;21243;-88
2022/02/25 05:56:37;;;;;;;9.03;4.73;;;2.40;99.90;;;;;;4999357;28;20412;-84
2022/02/25 05:59:03;;;;;;;11.57;4.60;;;2.20;99.90;;;;;;4976609;28;20447;-84
2022/02/25 06:01:29;;;;;;;10.20;4.32;;;2.40;99.90;;;;;;4979668;28;20389;-84
2022/02/25 06:03:57;;;;;;;11.25;4.28;;;2.20;99.90;;;;;;4981713;28;20906;-83
2022/02/25 06:06:23;;;;;;;10.05;4.40;;;2.10;99.90;;;;;;5000939;28;20392;-83
2022/02/25 06:08:49;;;;;;;11.40;4.25;;;2.40;99.90;;;;;;4999366;28;20883;-83
2022/02/25 06:11:15;;;;;;;11.07;4.50;;;2.10;99.90;;;;;;4999537;28;20453;-87
2022/02/25 06:13:41;;;;;;;10.97;5.10;;;2.70;99.90;;;;;;4980526;28;20432;-82
2022/02/25 06:16:06;;;;;;;9.43;4.60;;;2.30;99.90;;;;;;4980178;28;20396;-85
2022/02/25 06:18:37;;;;;;;11.98;4.75;;;2.30;99.90;;;;;;4997588;28;20381;-86
2022/02/25 06:21:04;;;;;;;10.73;4.40;;;2.60;99.90;;;;;;4977426;28;20930;-84
2022/02/25 06:23:31;;;;;;;10.57;4.87;;;2.60;99.90;;;;;;4979533;28;20442;-86
2022/02/25 06:25:58;;;;;;;10.80;4.47;;;2.70;99.90;;;;;;4980806;28;20433;-87
2022/02/25 06:28:24;;;;;;;10.50;4.70;;;2.80;99.90;;;;;;5000578;28;20392;-82
2022/02/25 06:30:51;;;;;;;13.02;4.93;;;2.70;99.90;;;;;;4982594;28;20416;-85
2022/02/25 06:33:18;;;;;;;11.65;4.95;;;2.80;99.90;;;;;;4995776;28;20381;-84
2022/02/25 06:35:43;;;;;;;8.65;4.95;;;2.50;99.90;;;;;;4979236;28;20381;-83
2022/02/25 06:38:09;;;;;;;11.50;4.87;;;3.30;99.90;;;;;;4994799;28;21148;-85
2022/02/25 06:40:35;;;;;;;12.50;5.07;;;3.30;99.90;;;;;;4993564;28;20923;-86
2022/02/25 06:43:00;;;;;;;9.90;4.70;;;3.00;99.90;;;;;;4996882;28;20408;-85
2022/02/25 06:45:26;;;;;;;8.17;4.47;;;3.10;99.90;;;;;;4976323;28;20393;-85
2022/02/25 06:47:52;;;;;;;12.50;4.90;;;3.30;99.90;;;;;;4978835;28;20851;-85
2022/02/25 06:50:18;;;;;;;9.68;4.85;;;3.30;99.90;;;;;;4978108;28;20906;-82
2022/02/25 06:52:44;;;;;;;8.20;4.60;;;3.20;99.90;;;;;;4994670;28;20519;-82
2022/02/25 06:55:11;;;;;;;9.48;4.80;;;3.30;99.90;;;;;;4993881;28;20396;-85
2022/02/25 06:57:37;;;;;;;8.95;4.45;;;3.40;99.90;;;;;;4976156;28;20400;-85
2022/02/25 07:00:04;;;;;;;11.20;5.10;;;3.50;99.90;;;;;;4975527;28;20393;-86
2022/02/25 07:02:29;;;;;;;10.63;4.70;;;3.50;99.90;;;;;;4974695;28;20403;-82
2022/02/25 07:04:55;;;;;;;11.23;5.37;;;3.60;99.90;;;;;;4993813;28;20918;-85
2022/02/25 07:07:21;;;;;;;9.63;4.60;;;3.60;99.90;;;;;;4973972;28;20385;-84
2022/02/25 07:09:46;;;;;;;9.67;4.80;;;3.70;99.90;;;;;;4990785;28;20388;-83
2022/02/25 07:12:12;;;;;;;6.95;4.47;;;3.70;99.90;;;;;;4990549;28;20390;-85
2022/02/25 07:14:38;;;;;;;9.87;5.30;;;5.30;99.90;;;;;;4991379;28;20958;-85
2022/02/25 07:17:04;;;;;;;10.20;5.15;;;3.90;99.90;;;;;;4973030;28;20451;-83
2022/02/25 07:19:29;;;;;;;9.55;4.60;;;3.90;99.90;;;;;;4972765;28;20393;-82
2022/02/25 07:21:55;;;;;;;9.30;4.67;;;3.90;99.90;;;;;;4972700;28;20401;-84
2022/02/25 07:24:20;;;;;;;10.00;4.10;;;3.90;99.90;;;;;;4974790;28;20417;-82
2022/02/25 07:26:46;;;;;;;9.75;4.65;;;3.90;99.90;;;;;;4974312;28;20414;-85
2022/02/25 07:29:12;;;;;;;9.55;4.80;;;3.70;99.90;;;;;;4991144;28;20385;-84
2022/02/25 07:31:38;;;;;;;10.43;5.40;;;3.80;99.90;;;;;;4974513;28;20727;-84
2022/02/25 07:34:05;;;;;;;9.38;4.95;;;3.70;99.90;;;;;;4990498;28;20404;-85
2022/02/25 07:36:31;;;;;;;9.35;4.95;;;3.70;99.90;;;;;;4974250;28;20485;-87
2022/02/25 07:38:57;;;;;;;9.03;5.37;;;3.80;99.90;;;;;;4990609;28;20381;-84
2022/02/25 07:41:23;;;;;;;8.57;4.50;;;4.10;99.90;;;;;;4989725;28;20395;-85
2022/02/25 07:43:50;;;;;;;10.53;5.00;;;6.10;99.90;;;;;;4977088;28;20401;-84
2022/02/25 07:46:16;;;;;;;8.63;4.77;;;4.70;99.90;;;;;;4991127;28;20802;-84
2022/02/25 07:48:44;;;;;;;9.40;4.43;;;4.60;99.90;;;;;;4973006;28;20393;-85
2022/02/25 07:51:12;;;;;;;9.80;4.55;;;;;;;;;;4990231;28;20420;-84
2022/02/25 07:53:38;;;;;;;8.90;4.70;;;4.80;99.90;;;;;;4972760;28;20871;-84
2022/02/25 07:56:04;;;;;;;11.23;4.37;;;5.40;99.90;;;;;;4989841;28;20455;-84
2022/02/25 07:58:31;;;;;;;8.20;3.80;;;4.80;99.90;;;;;;4973109;28;20380;-86
2022/02/25 08:00:56;;;;;;;10.23;4.05;;;5.10;99.90;;;;;;4992274;28;20439;-82
2022/02/25 08:03:23;;;;;;;8.83;3.93;;;5.80;99.90;;;;;;4977679;28;20894;-86
2022/02/25 08:05:51;;;;;;;10.67;3.83;;;5.10;99.90;;;;;;4979175;28;20385;-82
2022/02/25 08:08:18;;;;;;;9.67;4.07;;;5.70;99.90;;;;;;4978241;28;20385;-85
2022/02/25 08:10:44;;;;;;;8.02;4.00;;;4.80;99.90;;;;;;4993292;28;20389;-86
2022/02/25 08:13:12;;;;;;;11.63;4.07;;;5.70;99.90;;;;;;4996220;28;20380;-82
2022/02/25 08:15:37;;;;;;;12.63;4.38;;;5.30;99.90;;;;;;4977665;28;20384;-80
2022/02/25 08:18:07;;;;;;;9.50;4.25;;;5.20;99.90;;;;;;4976678;28;20953;-82
2022/02/25 08:20:36;;;;;;;10.70;4.57;;;5.40;99.90;;;;;;4996915;28;20423;-81
2022/02/25 08:23:04;;;;;;;7.72;3.78;;;;;;;;;;4977195;28;20961;-82
2022/02/25 08:25:31;;;;;;;7.55;3.88;;;6.40;99.90;;;;;;4996134;28;20858;-82
2022/02/25 08:27:59;;;;;;;9.60;4.03;;;6.00;99.90;;;;;;4973552;28;20385;-81
2022/02/25 08:30:25;;;;;;;8.98;3.92;;;5.70;99.90;;;;;;4995032;28;20896;-84
2022/02/25 08:32:51;;;;;;;8.40;4.85;;;6.50;99.90;;;;;;4976149;28;21023;-84
2022/02/25 08:35:18;;;;;;;9.87;4.07;;;6.10;99.90;;;;;;4976050;28;20393;-83
2022/02/25 08:37:46;;;;;;;8.95;4.30;;;6.30;99.90;;;;;;4974304;28;20823;-84
2022/02/25 08:40:12;;;;;;;9.65;4.13;;;5.90;99.90;;;;;;4991424;28;20403;-84
2022/02/25 08:42:39;;;;;;;8.05;3.50;;;6.00;99.90;;;;;;4975975;28;20383;-82
2022/02/25 08:45:06;;;;;;;11.52;4.40;;;6.30;99.90;;;;;;4975712;28;20385;-83
2022/02/25 08:47:32;;;;;;;11.35;4.20;;;6.00;99.90;;;;;;4976284;28;20397;-81
2022/02/25 08:49:58;;;;;;;10.65;3.90;;;6.20;99.90;;;;;;4993336;28;20385;-84
2022/02/25 08:52:23;;;;;;;9.18;3.47;;;6.30;99.90;;;;;;4993145;28;20393;-82
2022/02/25 08:54:50;;;;;;;9.13;3.60;;;6.30;99.90;;;;;;4994363;28;20499;-83
2022/02/25 08:57:17;;;;;;;10.73;4.20;;;6.30;99.90;;;;;;4976371;28;20452;-83
2022/02/25 08:59:43;;;;;;;12.20;3.90;;;6.30;99.90;;;;;;4977792;28;20780;-84
2022/02/25 09:02:09;;;;;;;8.73;3.60;;;6.10;99.90;;;;;;4959941;28;20428;-82
2022/02/25 09:04:35;;;;;;;10.30;3.72;;;6.20;99.90;;;;;;4993889;28;20409;-83
2022/02/25 09:07:01;;;;;;;9.10;3.60;;;6.50;99.90;;;;;;4995973;28;20377;-83
2022/02/25 09:09:27;;;;;;;13.50;4.28;;;6.40;99.90;;;;;;4998759;28;20454;-81
2022/02/25 09:11:53;;;;;;;9.32;3.80;;;6.30;99.90;;;;;;4998764;28;20452;-82
2022/02/25 09:14:19;;;;;;;10.27;3.73;;;6.70;99.90;;;;;;4977990;28;20381;-83
2022/02/25 09:16:44;;;;;;;11.60;3.78;;;7.00;99.90;;;;;;4977767;28;20411;-80
2022/02/25 09:19:10;;;;;;;9.77;3.73;;;7.00;99.90;;;;;;4997082;28;20400;-82
2022/02/25 09:21:40;;;;;;;8.50;4.07;;;7.20;99.90;;;;;;4980310;28;20404;-81
2022/02/25 09:24:07;;;;;;;7.95;3.50;;;7.40;99.90;;;;;;4982620;28;20947;-80
2022/02/25 09:26:34;;;;;;;10.55;4.20;;;7.40;99.90;;;;;;4986542;28;20392;-82
2022/02/25 09:29:00;;;;;;;10.00;3.95;;;7.70;99.90;;;;;;4980533;28;20393;-81
2022/02/25 09:31:27;;;;;;;9.02;3.60;;;7.60;99.90;;;;;;4980852;28;20392;-83
2022/02/25 09:33:53;;;;;;;11.93;4.17;;;7.50;99.90;;;;;;4979637;28;20397;-82
2022/02/25 09:36:18;;;;;;;12.37;4.57;;;7.70;99.90;;;;;;4978689;28;20409;-81
2022/02/25 09:38:45;;;;;;;11.53;4.07;;;;;;;;;;4978071;28;20384;-81
2022/02/25 09:41:11;;;;;;;10.93;4.30;;;7.80;99.90;;;;;;4994702;28;20855;-81
2022/02/25 09:43:38;;;;;;;11.93;3.60;;;8.20;99.90;;;;;;4996397;28;20409;-84
2022/02/25 09:46:06;;;;;;;11.18;3.50;;;8.10;99.90;;;;;;4978354;28;20420;-84
2022/02/25 09:48:33;;;;;;;12.18;3.60;;;7.80;99.90;;;;;;4996470;28;20462;-84
2022/02/25 09:51:02;;;;;;;10.68;3.65;;;7.50;99.90;;;;;;4996246;28;20458;-83
2022/02/25 09:53:28;;;;;;;11.90;3.83;;;7.70;99.90;;;;;;4995383;28;20455;-82
2022/02/25 09:55:54;;;;;;;10.70;3.85;;;7.70;99.90;;;;;;4996550;28;20392;-82
2022/02/25 09:58:20;;;;;;;10.40;4.07;;;7.90;99.90;;;;;;4979417;28;20409;-86
2022/02/25 10:00:46;;;;;;;11.80;3.57;;;8.00;99.90;;;;;;4978974;28;20389;-85
2022/02/25 10:03:17;;;;;;;12.93;4.10;;;7.90;99.90;;;;;;4996200;28;20463;-84
2022/02/25 10:05:45;;;;;;;13.32;3.70;;;7.70;99.90;;;;;;4995582;28;20946;-83
2022/02/25 10:08:14;;;;;;;10.65;3.45;;;7.60;99.90;;;;;;4975506;28;20479;-84
2022/02/25 10:10:53;;;;;;;8.43;3.10;;;7.50;99.90;;;;;;4991959;28;20389;-83
2022/02/25 10:13:23;;;;;;;11.03;3.70;;;7.60;99.90;;;;;;4974982;28;20555;-84
2022/02/25 10:15:53;;;;;;;7.70;3.25;;;7.60;99.90;;;;;;4975526;28;20392;-82
2022/02/25 10:18:21;;;;;;;10.48;3.78;;;7.50;99.90;;;;;;4992090;28;20523;-82
2022/02/25 10:20:48;;;;;;;11.30;3.70;;;7.50;99.90;;;;;;4972887;28;20492;-86
2022/02/25 10:23:17;;;;;;;12.30;3.80;;;7.50;99.90;;;;;;4991496;28;20397;-84
2022/02/25 10:25:43;;;;;;;10.93;3.90;;;7.40;99.90;;;;;;4991112;28;20396;-85
2022/02/25 10:28:09;;;;;;;10.50;3.70;;;7.60;99.90;;;;;;4991634;28;20401;-84
2022/02/25 10:30:37;;;;;;;10.38;3.72;;;7.40;99.90;;;;;;4994602;28;20385;-87
2022/02/25 10:33:03;;;;;;;12.18;3.58;;;7.50;99.90;;;;;;4973671;28;20543;-84
2022/02/25 10:35:35;;;;;;;9.47;3.30;;;7.50;99.90;;;;;;4973800;28;20957;-82
2022/02/25 10:38:12;;;;;;;8.35;3.28;;;7.40;99.90;;;;;;4973576;28;20385;-88
2022/02/25 10:40:44;;;;;;;11.02;3.70;;;7.40;99.90;;;;;;4973734;28;20428;-87
2022/02/25 10:43:17;;;;;;;10.10;3.72;;;7.30;99.90;;;;;;4953838;28;20441;-84
2022/02/25 10:45:44;;;;;;;8.80;3.50;;;7.20;99.90;;;;;;4991566;28;20396;-85
2022/02/25 10:48:13;;;;;;;10.25;3.55;;;7.30;99.90;;;;;;4991543;28;20384;-85
2022/02/25 10:50:57;;;;;;;10.23;3.20;;;7.50;99.90;;;;;;4974246;28;20447;-85
2022/02/25 10:53:34;;;;;;;8.35;3.17;;;7.70;99.90;;;;;;4973359;28;20401;-86
2022/02/25 10:56:11;;;;;;;8.02;3.22;;;7.60;99.90;;;;;;4991206;28;20416;-82
2022/02/25 10:58:41;;;;;;;8.95;2.97;;;7.60;99.90;;;;;;4990371;28;20401;-84
2022/02/25 11:01:08;;;;;;;7.45;3.28;;;7.90;99.90;;;;;;4991231;28;20381;-83
2022/02/25 11:03:34;;;;;;;9.52;3.13;;;8.20;99.90;;;;;;4972531;28;20427;-87
2022/02/25 11:06:00;;;;;;;10.65;3.28;;;8.20;99.90;;;;;;4991073;28;20373;-84
2022/02/25 11:08:26;;;;;;;7.70;2.92;;;7.90;99.90;;;;;;4973394;28;20397;-84
2022/02/25 11:10:54;;;;;;;7.05;2.72;;;7.60;99.90;;;;;;4973511;28;20389;-84
2022/02/25 11:13:20;;;;;;;9.23;2.70;;;7.70;99.90;;;;;;4973338;28;20524;-81
2022/02/25 11:15:47;;;;;;;8.90;3.00;;;7.70;99.90;;;;;;5002324;28;20810;-83
2022/02/25 11:18:13;;;;;;;11.77;3.00;;;7.80;99.90;;;;;;4998685;28;20403;-84
2022/02/25 11:20:43;;;;;;;6.82;3.10;;;7.90;99.90;;;;;;4990992;28;20373;-86
2022/02/25 11:23:13;;;;;;;8.57;2.75;;;7.90;99.90;;;;;;4990504;28;20408;-84
2022/02/25 11:25:42;;;;;;;7.57;3.20;;;7.90;99.90;;;;;;4991300;28;20385;-88
2022/02/25 11:28:09;;;;;;;10.10;3.10;;;8.00;99.90;;;;;;4989850;28;20416;-85
2022/02/25 11:30:40;;;;;;;8.10;2.70;;;8.10;99.90;;;;;;4991259;28;20392;-84
2022/02/25 11:33:13;;;;;;;6.87;2.73;;;8.10;99.90;;;;;;4992637;28;20452;-87
2022/02/25 11:35:48;;;;;;;8.70;3.10;;;8.00;99.90;;;;;;4973629;28;20745;-87
2022/02/25 11:38:14;;;;;;;7.95;2.90;;;7.90;99.90;;;;;;4993225;28;20397;-86
2022/02/25 11:40:54;;;;;;;7.65;2.92;;;7.60;99.90;;;;;;4990627;28;20552;-84
2022/02/25 11:43:47;;;;;;;10.57;3.22;;;7.60;99.90;;;;;;4990093;28;20420;-84
2022/02/25 11:46:28;;;;;;;10.00;3.40;;;7.70;99.90;;;;;;4963695;28;21574;-86
2022/02/25 11:49:01;;;;;;;7.15;2.97;;;7.70;99.90;;;;;;4990291;28;20392;-82
2022/02/25 11:51:39;;;;;;;6.95;2.80;;;7.70;99.90;;;;;;4967357;28;20441;-83
2022/02/25 11:54:27;;;;;;;7.03;2.70;;;7.90;99.90;;;;;;4970973;28;20410;-85
2022/02/25 11:57:03;;;;;;;7.25;3.17;;;7.90;99.90;;;;;;4972664;28;20394;-84
2022/02/25 11:59:32;;;;;;;8.27;3.40;;;8.00;99.90;;;;;;4973877;28;20516;-87
2022/02/25 12:02:19;;;;;;;10.90;3.40;;;8.00;99.90;;;;;;4952378;28;20533;-85
2022/02/25 12:04:54;;;;;;;10.80;3.28;;;8.10;99.90;;;;;;4951936;28;20887;-84
2022/02/25 12:07:37;;;;;;;10.15;3.40;;;8.00;99.90;;;;;;4951774;28;20401;-87
2022/02/25 12:10:12;;;;;;;8.23;2.90;;;7.90;99.90;;;;;;4953270;28;20772;-88
2022/02/25 12:12:44;;;;;;;7.82;2.80;;;7.70;99.90;;;;;;4970672;28;20437;-84
2022/02/25 12:15:19;;;;;;;8.40;2.83;;;7.50;99.90;;;;;;4953504;28;20402;-85
2022/02/25 12:17:51;;;;;;;9.82;3.80;;;7.40;99.90;;;;;;4955862;28;20452;-85
2022/02/25 12:20:26;;;;;;;10.77;3.10;;;7.30;99.90;;;;;;4953574;28;20407;-85
2022/02/25 12:23:02;;;;;;;8.93;3.08;;;7.20;99.90;;;;;;4970123;28;20391;-86
2022/02/25 12:25:39;;;;;;;7.80;3.00;;;7.00;99.90;;;;;;4953497;28;20389;-84
2022/02/25 12:28:11;;;;;;;9.90;3.70;;;7.00;99.90;;;;;;4953357;28;20833;-84
2022/02/25 12:30:40;;;;;;;12.90;3.83;;;6.80;99.90;;;;;;4954566;28;20423;-84
2022/02/25 12:33:31;;;;;;;7.68;2.85;;;6.70;99.90;;;;;;4973015;28;20414;-84
2022/02/25 12:36:05;;;;;;;9.88;3.42;;;6.60;99.90;;;;;;4973504;28;20414;-88
2022/02/25 12:38:39;;;;;;;7.00;2.95;;;6.60;99.90;;;;;;4958279;28;20394;-85
2022/02/25 12:41:11;;;;;;;10.53;3.40;;;6.60;99.90;;;;;;4936296;28;20509;-83
2022/02/25 12:43:48;;;;;;;6.75;3.00;;;6.60;99.90;;;;;;4957995;28;20406;-85
2022/02/25 12:46:16;;;;;;;11.10;3.80;;;6.70;99.90;;;;;;4962123;28;20481;-85
2022/02/25 12:48:43;;;;;;;11.52;3.42;;;6.80;99.90;;;;;;4963896;28;20426;-83
2022/02/25 12:51:09;;;;;;;9.67;3.03;;;6.70;99.90;;;;;;4964776;28;20499;-85
2022/02/25 12:54:10;;;;;;;11.53;3.33;;;6.60;99.90;;;;;;4980308;28;20791;-83
2022/02/25 12:56:39;;;;;;;8.55;2.72;;;6.50;99.90;;;;;;4966705;28;20407;-81
2022/02/25 12:59:07;;;;;;;10.13;3.35;;;6.30;99.90;;;;;;4979069;28;20404;-82
2022/02/25 13:01:36;;;;;;;10.18;3.60;;;6.20;99.90;;;;;;4996640;28;20389;-84
2022/02/25 13:04:11;;;;;;;7.80;3.08;;;6.10;99.90;;;;;;4980235;28;20911;-84